Time;durP1;ratioP1;P1;durP2;ratioP2;P2;SDS_P1;SDS_P2;PMS_P1;PMS_P2;Temp;Humidity;BMP_temperature;BMP_pressure;BME280_temperature;BME280_humidity;BME280_pressure;Samples;Min_cycle;Max_cycle;Signal;HPM_P1;HPM_P2
2022/09/01 00:00:00;;;;;;;5.17;2.77;;;19.90;63.90;;;;;;5095790;28;20453;-76
2022/09/01 00:02:33;;;;;;;5.87;3.00;;;19.90;64.00;;;;;;5095574;28;20447;-79
2022/09/01 00:05:11;;;;;;;6.07;2.33;;;19.90;64.00;;;;;;5100366;28;20501;-80
2022/09/01 00:07:39;;;;;;;4.53;2.07;;;19.80;64.10;;;;;;5100756;28;20481;-76
2022/09/01 00:10:09;;;;;;;6.83;2.70;;;19.80;64.10;;;;;;5099188;28;21175;-77
2022/09/01 00:12:38;;;;;;;4.40;2.23;;;19.80;64.10;;;;;;5098065;28;20446;-78
2022/09/01 00:15:08;;;;;;;6.13;2.73;;;19.80;64.10;;;;;;5102066;28;20443;-77
2022/09/01 00:17:36;;;;;;;5.97;2.80;;;19.70;64.20;;;;;;5096733;28;20559;-78
2022/09/01 00:20:07;;;;;;;6.73;2.53;;;19.70;64.20;;;;;;5099581;28;20455;-77
2022/09/01 00:22:38;;;;;;;4.63;2.50;;;19.70;64.20;;;;;;5099525;28;20454;-77
2022/09/01 00:25:08;;;;;;;5.90;2.43;;;19.60;64.20;;;;;;5096434;28;20492;-77
2022/09/01 00:27:36;;;;;;;5.57;2.40;;;19.60;64.10;;;;;;5104664;27;20718;-77
2022/09/01 00:30:05;;;;;;;8.03;2.63;;;19.50;64.10;;;;;;5103365;28;20460;-78
2022/09/01 00:32:33;;;;;;;4.67;2.40;;;19.50;64.30;;;;;;5095935;28;20458;-78
2022/09/01 00:35:01;;;;;;;5.03;2.30;;;19.50;64.40;;;;;;5098620;28;20527;-76
2022/09/01 00:37:31;;;;;;;7.60;2.80;;;19.40;64.40;;;;;;5097777;28;20485;-77
2022/09/01 00:39:59;;;;;;;5.60;2.43;;;19.40;64.40;;;;;;5095695;28;21017;-77
2022/09/01 00:42:27;;;;;;;6.90;2.83;;;19.40;64.40;;;;;;5095403;28;20454;-78
2022/09/01 00:44:55;;;;;;;5.33;2.87;;;19.30;64.50;;;;;;5098420;28;20483;-77
2022/09/01 00:47:23;;;;;;;4.73;2.67;;;19.30;64.40;;;;;;5101010;28;21015;-76
2022/09/01 00:49:53;;;;;;;5.53;3.00;;;19.20;64.40;;;;;;5099252;28;20457;-78
2022/09/01 00:52:25;;;;;;;6.27;3.03;;;19.10;64.50;;;;;;5093973;28;20467;-79
2022/09/01 00:54:57;;;;;;;5.20;2.77;;;19.10;64.60;;;;;;5096970;28;20527;-79
2022/09/01 00:57:26;;;;;;;5.30;3.03;;;19.00;64.80;;;;;;5098239;28;20474;-78
2022/09/01 00:59:58;;;;;;;5.37;2.73;;;19.00;64.80;;;;;;5100632;28;21262;-78
2022/09/01 01:02:26;;;;;;;6.80;2.77;;;19.00;64.90;;;;;;5098808;28;20825;-78
2022/09/01 01:04:54;;;;;;;4.50;2.67;;;18.90;65.00;;;;;;5094891;28;21120;-79
2022/09/01 01:07:26;;;;;;;5.60;2.73;;;18.90;65.10;;;;;;5102690;28;20477;-78
2022/09/01 01:09:55;;;;;;;5.90;2.80;;;18.90;65.10;;;;;;5107618;27;20554;-78
2022/09/01 01:12:29;;;;;;;6.07;3.50;;;18.90;65.20;;;;;;5111277;27;20540;-78
2022/09/01 01:14:57;;;;;;;4.90;2.77;;;18.90;65.20;;;;;;5108996;28;20443;-77
2022/09/01 01:17:25;;;;;;;7.07;2.80;;;18.90;65.20;;;;;;5094368;28;21037;-78
2022/09/01 01:23:04;;;;;;;6.07;3.10;;;18.80;65.30;;;;;;5102261;28;20488;-78
2022/09/01 01:25:40;;;;;;;6.80;3.00;;;18.80;65.40;;;;;;5099979;28;21370;-78
2022/09/01 01:28:12;;;;;;;8.10;2.77;;;18.80;65.60;;;;;;5098511;28;20482;-78
2022/09/01 01:30:42;;;;;;;5.47;2.80;;;18.70;65.50;;;;;;5095207;28;20481;-78
2022/09/01 01:33:11;;;;;;;5.40;2.83;;;18.70;65.60;;;;;;5094557;28;20478;-77
2022/09/01 01:35:40;;;;;;;4.80;2.20;;;18.60;65.70;;;;;;5099700;28;20478;-77
2022/09/01 01:38:10;;;;;;;5.30;3.00;;;18.60;65.80;;;;;;5096852;28;20474;-78
2022/09/01 01:40:40;;;;;;;7.53;2.90;;;18.60;65.80;;;;;;5097225;28;20472;-78
2022/09/01 01:43:10;;;;;;;5.67;3.10;;;18.60;65.80;;;;;;5104144;28;20834;-78
2022/09/01 01:45:39;;;;;;;4.83;2.77;;;18.60;65.80;;;;;;5100572;28;20527;-78
2022/09/01 01:48:07;;;;;;;5.90;3.10;;;18.50;65.80;;;;;;5106148;28;20469;-79
2022/09/01 01:50:36;;;;;;;5.83;3.00;;;18.50;65.80;;;;;;5111848;27;20485;-77
2022/09/01 01:53:07;;;;;;;5.70;2.97;;;18.40;65.90;;;;;;5100436;28;21023;-77
2022/09/01 01:55:42;;;;;;;6.83;2.80;;;18.40;66.00;;;;;;5099907;28;20452;-77
2022/09/01 01:58:11;;;;;;;5.60;2.73;;;18.30;66.10;;;;;;5104425;28;20476;-77
2022/09/01 02:00:46;;;;;;;10.53;3.30;;;18.30;66.10;;;;;;5106135;27;21002;-77
2022/09/01 02:03:17;;;;;;;5.30;3.10;;;18.30;66.20;;;;;;5102151;28;20476;-76
2022/09/01 02:05:47;;;;;;;7.60;2.87;;;18.20;66.30;;;;;;5119109;27;20555;-76
2022/09/01 02:08:21;;;;;;;6.23;3.00;;;18.20;66.30;;;;;;5102428;28;20476;-76
2022/09/01 02:10:54;;;;;;;5.87;2.70;;;18.20;66.40;;;;;;5107660;27;20460;-76
2022/09/01 02:13:24;;;;;;;5.50;2.97;;;18.10;66.40;;;;;;5102705;28;20550;-76
2022/09/01 02:15:55;;;;;;;4.87;2.57;;;18.20;66.50;;;;;;5104423;28;20909;-79
2022/09/01 02:18:27;;;;;;;6.30;3.07;;;18.10;66.60;;;;;;5100455;28;20481;-77
2022/09/01 02:20:58;;;;;;;8.43;3.20;;;18.10;66.60;;;;;;5104929;28;20449;-77
2022/09/01 02:23:26;;;;;;;5.20;3.10;;;18.10;66.60;;;;;;5099792;28;20457;-78
2022/09/01 02:26:01;;;;;;;6.60;3.10;;;18.10;66.70;;;;;;5105050;27;20526;-78
2022/09/01 02:28:48;;;;;;;6.23;3.60;;;18.10;66.80;;;;;;5095964;28;20532;-78
2022/09/01 02:31:26;;;;;;;6.00;3.77;;;18.00;66.90;;;;;;5100048;28;20448;-78
2022/09/01 02:33:55;;;;;;;5.53;3.00;;;18.00;66.90;;;;;;5116045;27;20468;-76
2022/09/01 02:36:24;;;;;;;5.83;3.43;;;18.00;67.00;;;;;;5097141;28;20828;-78
2022/09/01 02:38:54;;;;;;;8.00;3.43;;;18.00;67.10;;;;;;5114850;27;20485;-77
2022/09/01 02:41:25;;;;;;;7.27;3.33;;;18.00;67.10;;;;;;5097720;28;20441;-77
2022/09/01 02:43:54;;;;;;;6.43;3.10;;;18.00;67.30;;;;;;5100746;28;20485;-77
2022/09/01 02:46:22;;;;;;;7.20;3.70;;;18.00;67.30;;;;;;5105823;28;20644;-78
2022/09/01 02:48:53;;;;;;;5.30;3.10;;;18.10;67.30;;;;;;5109820;28;20513;-78
2022/09/01 02:51:24;;;;;;;6.80;3.53;;;18.00;67.20;;;;;;5125268;27;20457;-76
2022/09/01 02:53:53;;;;;;;4.97;3.03;;;18.00;67.30;;;;;;5114231;27;20454;-79
2022/09/01 02:56:26;;;;;;;5.63;3.10;;;18.00;67.30;;;;;;5108678;28;20829;-77
2022/09/01 02:58:55;;;;;;;5.50;3.43;;;18.00;67.30;;;;;;5117427;27;20503;-77
2022/09/01 03:01:28;;;;;;;6.50;3.60;;;18.00;67.40;;;;;;5107857;28;20457;-78
2022/09/01 03:04:01;;;;;;;5.77;3.60;;;17.90;67.50;;;;;;5106849;27;20493;-78
2022/09/01 03:06:32;;;;;;;6.87;3.40;;;17.90;67.50;;;;;;5102573;28;20469;-76
2022/09/01 03:09:02;;;;;;;6.63;3.67;;;17.90;67.60;;;;;;5099691;28;20456;-76
2022/09/01 03:11:33;;;;;;;5.13;2.70;;;17.90;67.60;;;;;;5108044;28;20492;-75
2022/09/01 03:14:01;;;;;;;6.87;2.80;;;18.00;67.70;;;;;;5100289;28;21142;-79
2022/09/01 03:16:30;;;;;;;5.80;3.07;;;18.00;67.70;;;;;;5105793;28;20499;-77
2022/09/01 03:18:58;;;;;;;5.60;3.30;;;18.00;67.70;;;;;;5112023;27;20461;-77
2022/09/01 03:21:26;;;;;;;5.77;3.00;;;18.00;67.80;;;;;;5106993;28;20564;-78
2022/09/01 03:23:57;;;;;;;7.23;2.70;;;18.00;67.70;;;;;;5104139;28;20449;-77
2022/09/01 03:26:25;;;;;;;9.93;3.17;;;18.00;67.70;;;;;;5118127;27;20463;-77
2022/09/01 03:28:56;;;;;;;6.13;3.70;;;18.00;67.70;;;;;;5099861;28;20487;-77
2022/09/01 03:31:26;;;;;;;5.93;3.13;;;18.00;67.70;;;;;;5094666;28;20461;-77
2022/09/01 03:34:00;;;;;;;7.33;3.77;;;18.00;67.60;;;;;;5114177;27;20490;-77
2022/09/01 03:36:32;;;;;;;6.00;3.60;;;17.90;67.60;;;;;;5099749;28;20513;-77
2022/09/01 03:39:00;;;;;;;5.63;3.30;;;17.90;67.70;;;;;;5094746;28;20514;-77
2022/09/01 03:41:31;;;;;;;6.07;3.37;;;17.90;67.80;;;;;;5099420;28;20457;-76
2022/09/01 03:44:00;;;;;;;6.27;3.20;;;17.80;67.80;;;;;;5101481;28;20456;-77
2022/09/01 03:46:32;;;;;;;6.27;3.73;;;17.80;67.90;;;;;;5096740;28;20484;-77
2022/09/01 03:49:06;;;;;;;6.63;3.47;;;17.80;67.90;;;;;;5099868;28;20481;-78
2022/09/01 03:51:37;;;;;;;5.33;3.03;;;17.80;68.00;;;;;;5095425;28;20981;-77
2022/09/01 03:54:07;;;;;;;5.10;3.20;;;17.90;67.90;;;;;;5105863;28;20464;-77
2022/09/01 03:56:35;;;;;;;6.17;3.27;;;17.90;67.90;;;;;;5095076;28;20453;-78
2022/09/01 03:59:04;;;;;;;5.40;2.97;;;17.90;67.90;;;;;;5095577;28;20946;-77
2022/09/01 04:01:42;;;;;;;7.73;3.60;;;17.90;67.90;;;;;;5098328;28;20951;-77
2022/09/01 04:04:12;;;;;;;7.40;3.30;;;17.90;67.90;;;;;;5107467;27;20467;-76
2022/09/01 04:06:42;;;;;;;6.87;3.90;;;17.90;67.90;;;;;;5104091;28;20515;-77
2022/09/01 04:09:10;;;;;;;8.30;4.80;;;17.90;67.80;;;;;;5099521;27;20544;-79
2022/09/01 04:11:44;;;;;;;8.63;4.93;;;17.90;67.80;;;;;;5095332;28;20464;-78
2022/09/01 04:14:19;;;;;;;7.53;4.03;;;17.90;67.80;;;;;;5098803;28;21324;-78
2022/09/01 04:19:38;;;;;;;8.83;3.30;;;17.80;67.70;;;;;;5107234;27;20473;-77
2022/09/01 04:22:12;;;;;;;7.27;4.00;;;17.80;67.80;;;;;;5116857;27;20464;-78
2022/09/01 04:24:44;;;;;;;5.97;3.47;;;17.80;67.80;;;;;;5107257;27;20463;-78
2022/09/01 04:27:14;;;;;;;7.63;3.57;;;17.70;67.70;;;;;;5103348;28;21107;-77
2022/09/01 04:29:45;;;;;;;6.20;3.57;;;17.70;67.70;;;;;;5102534;28;21045;-77
2022/09/01 04:32:14;;;;;;;7.20;3.67;;;17.60;67.80;;;;;;5094045;28;20548;-78
2022/09/01 04:34:46;;;;;;;6.43;3.80;;;17.60;67.80;;;;;;5108847;27;20486;-76
2022/09/01 04:37:17;;;;;;;6.40;3.80;;;17.50;67.90;;;;;;5109548;27;20477;-77
2022/09/01 04:39:51;;;;;;;6.07;3.63;;;17.50;68.00;;;;;;5107587;27;20464;-77
2022/09/01 04:42:25;;;;;;;7.23;3.87;;;17.50;68.10;;;;;;5100940;28;20452;-77
2022/09/01 04:44:58;;;;;;;7.60;3.50;;;17.50;68.10;;;;;;5106417;27;20969;-77
2022/09/01 04:47:30;;;;;;;7.20;4.10;;;17.50;68.10;;;;;;5093172;28;20920;-76
2022/09/01 04:50:12;;;;;;;5.40;3.50;;;17.40;68.10;;;;;;5099011;27;20456;-77
2022/09/01 04:52:44;;;;;;;7.10;4.00;;;17.40;68.10;;;;;;5096344;28;20464;-78
2022/09/01 04:55:23;;;;;;;9.07;3.33;;;17.40;68.30;;;;;;5093238;28;20961;-77
2022/09/01 04:57:52;;;;;;;7.57;3.30;;;17.30;68.30;;;;;;5097821;28;20693;-78
2022/09/01 05:00:23;;;;;;;7.77;3.53;;;17.30;68.40;;;;;;5102628;28;20487;-78
2022/09/01 05:02:52;;;;;;;8.00;4.13;;;17.30;68.50;;;;;;5100001;28;20568;-78
2022/09/01 05:05:23;;;;;;;8.47;3.70;;;17.30;68.60;;;;;;5100867;28;20457;-79
2022/09/01 05:07:51;;;;;;;7.90;4.40;;;17.30;68.50;;;;;;5102367;28;20484;-77
2022/09/01 05:10:28;;;;;;;6.47;4.10;;;17.30;68.50;;;;;;5102184;28;20483;-78
2022/09/01 05:13:18;;;;;;;8.87;4.43;;;17.30;68.90;;;;;;5106488;27;21087;-77
2022/09/01 05:15:58;;;;;;;8.17;3.77;;;17.70;69.70;;;;;;5101694;28;20460;-78
2022/09/01 05:18:27;;;;;;;9.73;4.20;;;18.30;70.00;;;;;;5102381;28;20469;-77
2022/09/01 05:20:56;;;;;;;8.43;3.87;;;19.00;69.50;;;;;;5103624;28;21181;-79
2022/09/01 05:23:25;;;;;;;7.70;3.60;;;19.80;68.70;;;;;;5106917;28;20857;-77
2022/09/01 05:25:55;;;;;;;6.40;3.40;;;20.50;67.90;;;;;;5098204;28;20853;-77
2022/09/01 05:28:24;;;;;;;9.40;3.13;;;21.20;66.90;;;;;;5095437;28;20482;-78
2022/09/01 05:30:53;;;;;;;12.03;3.80;;;21.90;65.70;;;;;;5094399;28;20438;-78
2022/09/01 05:33:22;;;;;;;5.47;3.40;;;22.60;64.70;;;;;;5102567;28;20558;-78
2022/09/01 05:35:56;;;;;;;6.40;3.60;;;23.20;63.70;;;;;;5098962;28;20460;-77
2022/09/01 05:38:24;;;;;;;6.97;3.40;;;23.70;62.30;;;;;;5093632;28;20480;-78
2022/09/01 05:40:57;;;;;;;9.50;3.57;;;24.10;61.30;;;;;;5102627;28;20453;-78
2022/09/01 05:43:26;;;;;;;7.20;3.40;;;24.60;60.60;;;;;;5095832;28;20457;-76
2022/09/01 05:45:57;;;;;;;6.67;3.00;;;25.00;59.90;;;;;;5103360;28;20461;-79
2022/09/01 05:48:38;;;;;;;6.53;3.97;;;25.40;58.80;;;;;;5109278;28;20481;-77
2022/09/01 05:51:09;;;;;;;8.67;3.97;;;25.20;57.10;;;;;;5103202;28;20457;-77
2022/09/01 05:53:58;;;;;;;6.13;3.70;;;24.30;56.90;;;;;;5098013;28;20464;-78
2022/09/01 05:56:29;;;;;;;8.63;3.87;;;23.20;57.60;;;;;;5097676;28;20527;-76
2022/09/01 05:59:00;;;;;;;9.10;4.07;;;22.30;58.40;;;;;;5101347;28;20448;-77
2022/09/01 06:01:51;;;;;;;5.50;3.50;;;21.70;59.20;;;;;;5115781;28;20564;-77
2022/09/01 06:04:21;;;;;;;5.63;3.47;;;21.00;60.20;;;;;;5102388;28;20466;-77
2022/09/01 06:06:50;;;;;;;7.40;4.47;;;20.60;61.00;;;;;;5107238;28;20516;-78
2022/09/01 06:09:39;;;;;;;7.93;4.80;;;20.20;61.70;;;;;;5109412;28;20503;-77
2022/09/01 06:12:07;;;;;;;7.37;4.40;;;19.90;62.50;;;;;;5100985;28;20527;-76
2022/09/01 06:14:36;;;;;;;6.30;4.20;;;19.70;63.20;;;;;;5100826;28;20502;-77
2022/09/01 06:17:08;;;;;;;8.00;4.03;;;19.60;63.80;;;;;;5110315;28;20466;-77
2022/09/01 06:19:37;;;;;;;9.93;4.03;;;19.50;64.40;;;;;;5104105;28;20449;-78
2022/09/01 06:22:06;;;;;;;7.77;4.43;;;19.40;65.00;;;;;;5097869;28;20818;-78
2022/09/01 06:24:34;;;;;;;8.70;4.10;;;19.30;65.50;;;;;;5105702;28;20462;-78
2022/09/01 06:27:02;;;;;;;7.60;4.10;;;19.20;65.70;;;;;;5101631;28;20905;-77
2022/09/01 06:29:38;;;;;;;7.37;3.93;;;19.20;66.20;;;;;;5105156;28;20974;-77
2022/09/01 06:32:09;;;;;;;8.73;3.83;;;19.20;66.50;;;;;;5105130;28;20467;-77
2022/09/01 06:34:41;;;;;;;6.67;3.93;;;19.10;66.90;;;;;;5122776;27;20541;-77
2022/09/01 06:37:09;;;;;;;7.60;4.40;;;19.10;67.20;;;;;;5104167;27;20557;-76
2022/09/01 06:39:38;;;;;;;7.73;4.17;;;19.10;67.40;;;;;;5103276;28;20462;-78
2022/09/01 06:42:12;;;;;;;7.00;3.80;;;19.10;67.90;;;;;;5104511;28;20452;-77
2022/09/01 06:44:48;;;;;;;7.60;3.87;;;19.10;68.20;;;;;;5106074;28;20459;-76
2022/09/01 06:47:18;;;;;;;6.23;3.90;;;19.00;68.30;;;;;;5100987;28;20841;-76
2022/09/01 06:49:46;;;;;;;6.73;3.90;;;19.00;68.70;;;;;;5108386;28;20504;-76
2022/09/01 06:52:19;;;;;;;7.70;3.97;;;19.00;68.60;;;;;;5107904;28;20466;-76
2022/09/01 06:54:50;;;;;;;6.87;3.80;;;19.00;69.10;;;;;;5097546;28;20464;-77
2022/09/01 06:57:20;;;;;;;8.17;3.83;;;19.00;68.90;;;;;;5107639;28;20473;-76
2022/09/01 07:00:16;;;;;;;6.57;4.37;;;19.00;69.20;;;;;;5099047;28;20505;-77
2022/09/01 07:02:53;;;;;;;6.00;3.73;;;19.00;69.20;;;;;;5107676;28;20473;-76
2022/09/01 07:05:45;;;;;;;10.27;4.03;;;19.00;69.30;;;;;;5106936;28;20485;-76
2022/09/01 07:08:50;;;;;;;8.10;4.37;;;19.00;69.40;;;;;;5103958;28;20977;-76
2022/09/01 07:11:41;;;;;;;6.50;3.93;;;19.10;69.70;;;;;;5108351;28;20966;-77
2022/09/01 07:14:29;;;;;;;10.30;4.23;;;19.20;69.60;;;;;;5102133;28;20982;-77
2022/09/01 07:16:58;;;;;;;7.23;4.00;;;19.20;69.70;;;;;;5101429;28;20519;-77
2022/09/01 07:19:48;;;;;;;9.77;3.83;;;19.30;69.60;;;;;;5100572;28;20459;-78
2022/09/01 07:22:17;;;;;;;5.63;3.60;;;19.30;69.50;;;;;;5094800;28;20453;-77
2022/09/01 07:25:11;;;;;;;6.63;3.83;;;19.40;69.50;;;;;;5098629;28;21280;-77
2022/09/01 07:28:09;;;;;;;9.07;4.40;;;19.50;69.50;;;;;;5092407;28;20528;-77
2022/09/01 07:30:41;;;;;;;7.10;3.83;;;19.50;69.30;;;;;;5095285;28;20466;-76
2022/09/01 07:33:11;;;;;;;5.73;3.53;;;19.50;69.30;;;;;;5102724;28;20456;-77
2022/09/01 07:36:06;;;;;;;7.77;3.77;;;19.60;69.20;;;;;;5109344;27;20486;-75
2022/09/01 07:38:55;;;;;;;5.87;3.70;;;19.60;69.20;;;;;;5101015;28;20953;-77
2022/09/01 07:41:54;;;;;;;5.80;3.80;;;19.70;69.20;;;;;;5098930;28;20558;-76
2022/09/01 07:45:07;;;;;;;6.40;3.97;;;19.70;69.20;;;;;;5102372;28;20451;-77
2022/09/01 07:48:05;;;;;;;7.03;4.23;;;19.70;69.20;;;;;;5101958;27;20587;-76
2022/09/01 07:50:43;;;;;;;7.13;3.53;;;19.70;69.10;;;;;;5104645;27;20463;-78
2022/09/01 07:53:35;;;;;;;7.53;4.20;;;19.80;69.10;;;;;;5117488;27;20469;-76
2022/09/01 07:56:08;;;;;;;6.73;3.60;;;19.80;69.10;;;;;;5106501;28;20452;-77
2022/09/01 07:58:42;;;;;;;10.77;4.00;;;19.90;69.10;;;;;;5112811;27;20482;-77
2022/09/01 08:01:12;;;;;;;6.50;3.93;;;19.90;68.90;;;;;;5105201;28;20451;-77
2022/09/01 08:03:41;;;;;;;8.30;5.27;;;20.00;68.90;;;;;;5096000;28;21016;-77
2022/09/01 08:06:13;;;;;;;6.77;4.50;;;20.00;68.80;;;;;;5093425;28;20467;-76
2022/09/01 08:08:42;;;;;;;9.37;4.77;;;20.00;68.70;;;;;;5112543;27;21257;-77
2022/09/01 08:11:16;;;;;;;9.07;3.90;;;20.00;68.70;;;;;;5098709;28;20518;-77
2022/09/01 08:14:02;;;;;;;8.77;3.67;;;20.00;68.70;;;;;;5102533;28;20492;-77
2022/09/01 08:16:31;;;;;;;14.53;3.70;;;20.10;68.70;;;;;;5097618;28;20466;-76
2022/09/01 08:19:08;;;;;;;7.00;4.40;;;20.10;68.70;;;;;;5098177;28;21163;-78
2022/09/01 08:22:03;;;;;;;9.57;3.33;;;20.20;68.70;;;;;;5099146;28;20500;-77
2022/09/01 08:24:56;;;;;;;8.27;4.07;;;20.20;68.50;;;;;;5095598;28;20799;-77
2022/09/01 08:27:24;;;;;;;7.93;4.40;;;20.30;68.50;;;;;;5105108;28;20484;-76
2022/09/01 08:29:52;;;;;;;7.93;4.13;;;20.30;68.40;;;;;;5102929;28;20606;-76
2022/09/01 08:32:20;;;;;;;7.63;4.53;;;20.40;68.40;;;;;;5106089;28;20451;-76
2022/09/01 08:34:48;;;;;;;7.40;4.27;;;20.40;68.40;;;;;;5098964;28;20458;-76
2022/09/01 08:37:17;;;;;;;7.03;4.73;;;20.50;68.30;;;;;;5097425;28;20476;-77
2022/09/01 08:39:45;;;;;;;7.63;4.37;;;20.50;68.30;;;;;;5104649;28;20447;-76
2022/09/01 08:42:24;;;;;;;8.00;4.73;;;20.60;68.10;;;;;;5100375;28;20470;-76
2022/09/01 08:45:03;;;;;;;8.60;4.30;;;20.70;68.00;;;;;;5097883;28;20495;-78
2022/09/01 08:47:31;;;;;;;6.63;4.20;;;20.80;67.90;;;;;;5097502;28;20509;-77
2022/09/01 08:50:20;;;;;;;7.93;4.30;;;20.80;67.70;;;;;;5097737;28;20476;-76
2022/09/01 08:53:20;;;;;;;6.23;3.53;;;20.90;67.50;;;;;;5095269;28;20868;-76
2022/09/01 08:55:55;;;;;;;7.90;4.20;;;21.00;67.40;;;;;;5097287;28;20466;-75
2022/09/01 08:58:27;;;;;;;10.90;4.30;;;21.00;67.00;;;;;;5095560;28;21008;-78
2022/09/01 09:01:26;;;;;;;10.90;4.37;;;21.00;67.00;;;;;;5098836;28;20438;-77
2022/09/01 09:04:08;;;;;;;7.20;3.93;;;21.10;66.90;;;;;;5096023;28;20450;-76
2022/09/01 09:06:47;;;;;;;7.17;4.03;;;21.20;66.50;;;;;;5101217;28;20535;-78
2022/09/01 09:09:15;;;;;;;11.23;4.00;;;21.30;66.40;;;;;;5101005;28;20481;-76
2022/09/01 09:12:14;;;;;;;7.63;3.80;;;21.30;66.40;;;;;;5099830;28;21023;-76
2022/09/01 09:14:56;;;;;;;6.60;3.90;;;21.40;65.70;;;;;;5096732;28;20448;-79
2022/09/01 09:17:30;;;;;;;8.90;3.80;;;21.40;66.00;;;;;;5095677;28;20481;-77
2022/09/01 09:20:00;;;;;;;6.40;3.07;;;21.50;65.90;;;;;;5098968;28;20539;-78
2022/09/01 09:22:28;;;;;;;6.30;3.30;;;21.60;65.70;;;;;;5095257;28;20525;-78
2022/09/01 09:25:02;;;;;;;7.37;3.60;;;21.60;65.10;;;;;;5099787;28;20536;-76
2022/09/01 09:27:33;;;;;;;7.07;4.00;;;21.70;64.90;;;;;;5108990;28;20470;-76
2022/09/01 09:30:07;;;;;;;7.80;4.83;;;21.70;64.90;;;;;;5109633;28;20479;-76
2022/09/01 09:32:48;;;;;;;5.60;3.63;;;21.70;64.90;;;;;;5108622;28;20539;-77
2022/09/01 09:35:39;;;;;;;6.60;3.67;;;21.80;64.60;;;;;;5106041;28;20480;-77
2022/09/01 09:38:27;;;;;;;5.97;3.40;;;21.90;64.60;;;;;;5099764;28;20473;-76
2022/09/01 09:41:00;;;;;;;6.90;3.60;;;21.90;64.40;;;;;;5099003;28;20540;-76
2022/09/01 09:43:54;;;;;;;7.53;3.50;;;22.00;64.40;;;;;;5104155;28;20473;-75
2022/09/01 09:46:37;;;;;;;13.90;3.87;;;22.10;63.90;;;;;;5105185;28;20520;-76
2022/09/01 09:49:12;;;;;;;6.30;3.20;;;22.10;63.40;;;;;;5104498;28;20478;-76
2022/09/01 09:51:42;;;;;;;5.30;2.97;;;22.10;63.30;;;;;;5097705;28;20465;-76
2022/09/01 09:54:17;;;;;;;5.67;3.03;;;22.10;63.30;;;;;;5098904;28;20457;-77
2022/09/01 09:56:47;;;;;;;6.60;3.33;;;22.20;63.10;;;;;;5100245;28;20449;-76
2022/09/01 09:59:21;;;;;;;5.77;2.77;;;22.20;62.80;;;;;;5093669;28;20485;-77
2022/09/01 10:02:27;;;;;;;6.10;2.80;;;22.20;62.20;;;;;;5099459;28;20468;-76
2022/09/01 10:04:56;;;;;;;8.47;3.37;;;22.20;62.00;;;;;;5099951;28;20847;-76
2022/09/01 10:07:31;;;;;;;7.20;3.60;;;22.20;62.00;;;;;;5101910;28;20571;-76
2022/09/01 10:10:01;;;;;;;13.70;3.40;;;22.30;61.90;;;;;;5107816;28;21080;-76
2022/09/01 10:12:32;;;;;;;6.10;3.33;;;22.30;61.90;;;;;;5100955;28;20445;-76
2022/09/01 10:15:04;;;;;;;7.40;3.57;;;22.30;61.90;;;;;;5100557;28;20449;-77
2022/09/01 10:17:43;;;;;;;5.60;2.47;;;22.30;61.90;;;;;;5095941;28;20552;-77
2022/09/01 10:20:16;;;;;;;6.73;3.47;;;22.40;61.80;;;;;;5101082;28;20496;-76
2022/09/01 10:22:45;;;;;;;6.60;3.20;;;22.50;61.50;;;;;;5101608;28;20452;-76
2022/09/01 10:25:19;;;;;;;9.53;3.60;;;22.50;61.30;;;;;;5102655;28;20816;-76
2022/09/01 10:27:51;;;;;;;5.73;3.20;;;22.50;61.30;;;;;;5102505;28;20471;-76
2022/09/01 10:30:22;;;;;;;7.50;2.80;;;22.50;61.30;;;;;;5104971;28;20510;-76
2022/09/01 10:32:55;;;;;;;6.10;3.20;;;22.50;61.30;;;;;;5102282;28;21013;-75
2022/09/01 10:35:31;;;;;;;9.13;3.50;;;22.50;61.20;;;;;;5094537;28;20463;-76
2022/09/01 10:38:03;;;;;;;6.63;3.10;;;22.60;60.90;;;;;;5101815;28;20471;-75
2022/09/01 10:40:44;;;;;;;6.70;3.07;;;22.60;60.90;;;;;;5100891;28;20451;-76
2022/09/01 10:43:27;;;;;;;6.27;3.27;;;22.70;60.70;;;;;;5100108;28;20501;-76
2022/09/01 10:45:56;;;;;;;6.03;3.30;;;22.70;60.60;;;;;;5098754;28;21214;-76
2022/09/01 10:48:37;;;;;;;6.20;2.90;;;22.80;60.50;;;;;;5106645;28;20505;-76
2022/09/01 10:51:42;;;;;;;5.20;2.90;;;22.80;60.30;;;;;;5105391;28;20444;-76
2022/09/01 10:54:57;;;;;;;5.97;3.33;;;22.90;59.60;;;;;;5105034;28;20949;-76
2022/09/01 10:57:47;;;;;;;5.13;2.80;;;22.90;59.90;;;;;;5098144;28;20486;-77
2022/09/01 11:00:47;;;;;;;5.10;2.63;;;22.90;59.30;;;;;;5102006;28;20455;-76
2022/09/01 11:04:00;;;;;;;7.67;3.00;;;22.90;59.20;;;;;;5095926;28;20461;-75
2022/09/01 11:06:43;;;;;;;5.30;2.60;;;22.90;58.80;;;;;;5096214;28;20825;-73
2022/09/01 11:09:34;;;;;;;9.10;3.23;;;23.00;58.90;;;;;;5093613;28;20489;-74
2022/09/01 11:12:30;;;;;;;5.10;2.80;;;23.30;58.80;;;;;;5098393;28;20479;-76
2022/09/01 11:15:00;;;;;;;7.63;3.67;;;23.40;58.00;;;;;;5100082;28;20559;-75
2022/09/01 11:17:31;;;;;;;8.40;3.40;;;23.50;58.20;;;;;;5096710;28;20998;-76
2022/09/01 11:20:07;;;;;;;7.10;2.70;;;23.60;57.80;;;;;;5099592;28;20499;-77
2022/09/01 11:22:38;;;;;;;6.80;2.93;;;23.60;57.00;;;;;;5097210;28;20494;-77
2022/09/01 11:25:32;;;;;;;5.50;2.90;;;23.70;57.40;;;;;;5101132;28;20457;-76
2022/09/01 11:28:36;;;;;;;5.10;3.00;;;23.80;57.30;;;;;;5096590;28;20482;-78
2022/09/01 11:31:28;;;;;;;5.20;2.97;;;23.70;57.10;;;;;;5097848;28;20488;-76
2022/09/01 11:34:09;;;;;;;7.70;3.27;;;23.70;56.80;;;;;;5101158;28;20462;-82
2022/09/01 11:36:49;;;;;;;5.40;2.70;;;23.70;56.90;;;;;;5103495;28;20456;-79
2022/09/01 11:39:32;;;;;;;7.47;2.80;;;23.70;56.70;;;;;;5108065;27;20455;-80
2022/09/01 11:42:05;;;;;;;9.10;2.70;;;23.80;56.50;;;;;;5102983;28;20569;-80
2022/09/01 11:44:40;;;;;;;4.30;2.00;;;23.70;56.50;;;;;;5101058;28;20461;-80
2022/09/01 11:47:14;;;;;;;8.57;2.30;;;23.80;56.50;;;;;;5107294;28;21078;-80
2022/09/01 11:49:53;;;;;;;4.93;2.23;;;23.80;56.40;;;;;;5103966;28;20523;-79
2022/09/01 11:52:26;;;;;;;8.83;3.10;;;23.80;56.20;;;;;;5100578;28;20464;-76
2022/09/01 11:54:54;;;;;;;5.27;2.70;;;23.80;55.60;;;;;;5101689;28;21001;-77
2022/09/01 11:57:30;;;;;;;6.10;2.20;;;23.80;55.70;;;;;;5100183;28;20590;-77
2022/09/01 12:00:01;;;;;;;5.17;2.40;;;23.70;55.30;;;;;;5108329;28;20444;-77
2022/09/01 12:02:43;;;;;;;4.70;2.57;;;23.70;55.40;;;;;;5104051;28;20437;-78
2022/09/01 12:05:28;;;;;;;4.97;2.80;;;23.70;55.20;;;;;;5099394;28;20483;-78
2022/09/01 12:07:58;;;;;;;8.63;2.77;;;23.70;55.20;;;;;;5096559;28;20473;-78
2022/09/01 12:10:32;;;;;;;6.63;2.33;;;23.70;55.20;;;;;;5099256;28;20473;-75
2022/09/01 12:13:02;;;;;;;10.37;2.73;;;23.70;55.00;;;;;;5097579;28;20459;-77
2022/09/01 12:15:33;;;;;;;6.40;2.40;;;23.70;55.10;;;;;;5103571;27;21123;-77
2022/09/01 12:18:17;;;;;;;4.90;2.40;;;23.70;55.10;;;;;;5101022;27;20496;-79
2022/09/01 12:20:48;;;;;;;8.03;2.83;;;23.80;55.00;;;;;;5101580;28;20452;-78
2022/09/01 12:23:26;;;;;;;6.47;2.43;;;23.90;55.00;;;;;;5102750;28;20461;-77
2022/09/01 12:25:56;;;;;;;6.43;2.60;;;23.90;54.70;;;;;;5102494;28;20546;-77
2022/09/01 12:28:29;;;;;;;6.03;3.23;;;24.00;54.70;;;;;;5098508;28;20576;-77
2022/09/01 12:31:01;;;;;;;8.50;3.03;;;24.00;54.60;;;;;;5098593;28;20489;-77
2022/09/01 12:33:35;;;;;;;5.43;2.43;;;24.00;54.60;;;;;;5094022;28;20444;-76
2022/09/01 12:36:32;;;;;;;12.70;2.80;;;24.00;54.60;;;;;;5095487;28;20529;-77
2022/09/01 12:39:23;;;;;;;6.60;3.20;;;24.10;54.30;;;;;;5061101;28;20478;-77
2022/09/01 12:42:08;;;;;;;5.23;2.63;;;24.10;54.30;;;;;;5095782;28;21015;-76
2022/09/01 12:44:50;;;;;;;9.30;2.67;;;24.10;54.20;;;;;;5093645;28;21150;-76
2022/09/01 12:47:50;;;;;;;5.00;2.30;;;24.10;53.60;;;;;;5102695;28;20558;-77
2022/09/01 12:50:41;;;;;;;8.90;3.00;;;24.10;53.80;;;;;;5098019;28;20835;-80
2022/09/01 12:53:27;;;;;;;10.30;3.50;;;24.10;53.60;;;;;;5096217;28;20480;-75
2022/09/01 12:56:06;;;;;;;5.83;2.73;;;24.00;53.70;;;;;;5095419;28;20541;-77
2022/09/01 12:58:34;;;;;;;4.67;2.40;;;24.00;53.70;;;;;;5100200;28;20476;-77
2022/09/01 13:01:06;;;;;;;13.77;3.80;;;24.00;53.80;;;;;;5102909;28;20957;-76
2022/09/01 13:04:03;;;;;;;10.00;5.20;;;24.00;53.80;;;;;;5096040;28;20450;-75
2022/09/01 13:06:31;;;;;;;6.43;2.80;;;24.00;53.80;;;;;;5099511;28;21052;-76
2022/09/01 13:09:00;;;;;;;5.17;2.67;;;24.00;53.60;;;;;;5103541;28;21011;-79
2022/09/01 13:11:29;;;;;;;7.77;3.30;;;24.00;53.40;;;;;;5100200;28;20473;-78
2022/09/01 13:14:17;;;;;;;6.93;3.57;;;24.00;53.60;;;;;;5097790;28;20456;-77
2022/09/01 13:16:45;;;;;;;6.90;2.90;;;24.00;53.50;;;;;;5094763;28;20465;-77
2022/09/01 13:19:13;;;;;;;5.00;2.43;;;24.00;53.40;;;;;;5098769;28;20456;-77
2022/09/01 13:21:54;;;;;;;8.80;2.60;;;24.00;53.40;;;;;;5096571;28;20458;-77
2022/09/01 13:24:24;;;;;;;4.80;2.57;;;24.00;53.40;;;;;;5102323;28;20480;-76
2022/09/01 13:26:58;;;;;;;8.60;3.90;;;24.10;53.10;;;;;;5102379;28;20442;-77
2022/09/01 13:29:46;;;;;;;6.60;3.07;;;24.10;53.20;;;;;;5098450;28;20484;-79
2022/09/01 13:32:14;;;;;;;6.57;2.57;;;24.10;53.20;;;;;;5097744;28;20482;-79